sensor_id;sensor_type;location;lat;lon;timestamp;pressure;altitude;pressure_sealevel;temperature;humidity
70921;BME280;58572;48.110;19.838;2022-12-20T00:01:16;99581.72;;;-1.55;78.61
70921;BME280;58572;48.110;19.838;2022-12-20T00:03:43;99509.19;;;-1.91;78.16
70921;BME280;58572;48.110;19.838;2022-12-20T00:06:11;99576.06;;;-1.61;78.33
70921;BME280;58572;48.110;19.838;2022-12-20T00:08:40;99570.56;;;-1.51;77.67
70921;BME280;58572;48.110;19.838;2022-12-20T00:11:08;99566.22;;;-1.60;77.88
70921;BME280;58572;48.110;19.838;2022-12-20T00:13:36;99573.03;;;-1.66;78.50
70921;BME280;58572;48.110;19.838;2022-12-20T00:16:05;99572.22;;;-1.58;79.05
70921;BME280;58572;48.110;19.838;2022-12-20T00:18:32;99561.22;;;-1.63;80.06
70921;BME280;58572;48.110;19.838;2022-12-20T00:21:00;99557.56;;;-1.62;79.57
70921;BME280;58572;48.110;19.838;2022-12-20T00:23:28;99528.72;;;-1.75;79.51
70921;BME280;58572;48.110;19.838;2022-12-20T00:26:01;99560.22;;;-1.54;80.12
70921;BME280;58572;48.110;19.838;2022-12-20T00:28:28;99558.91;;;-1.50;79.39
70921;BME280;58572;48.110;19.838;2022-12-20T00:30:56;99554.56;;;-1.43;79.75
70921;BME280;58572;48.110;19.838;2022-12-20T00:33:24;99563.56;;;-1.36;78.30
70921;BME280;58572;48.110;19.838;2022-12-20T00:35:51;99559.91;;;-1.18;78.92
70921;BME280;58572;48.110;19.838;2022-12-20T00:38:20;99522.56;;;-1.35;78.10
70921;BME280;58572;48.110;19.838;2022-12-20T00:40:47;99546.91;;;-1.38;78.73
70921;BME280;58572;48.110;19.838;2022-12-20T00:43:15;99549.22;;;-1.51;78.87
70921;BME280;58572;48.110;19.838;2022-12-20T00:45:42;99556.19;;;-1.74;80.05
70921;BME280;58572;48.110;19.838;2022-12-20T00:48:09;99549.22;;;-1.67;80.22
70921;BME280;58572;48.110;19.838;2022-12-20T00:50:37;99543.56;;;-1.48;78.98
70921;BME280;58572;48.110;19.838;2022-12-20T00:53:04;99545.22;;;-1.55;80.93
70921;BME280;58572;48.110;19.838;2022-12-20T00:55:34;99540.56;;;-1.53;79.44
70921;BME280;58572;48.110;19.838;2022-12-20T00:58:01;99534.53;;;-1.71;80.84
70921;BME280;58572;48.110;19.838;2022-12-20T01:00:30;99534.91;;;-1.50;78.93
70921;BME280;58572;48.110;19.838;2022-12-20T01:02:57;99538.06;;;-1.54;79.72
70921;BME280;58572;48.110;19.838;2022-12-20T01:05:24;99544.88;;;-1.60;80.52
70921;BME280;58572;48.110;19.838;2022-12-20T01:07:51;99545.41;;;-1.40;79.25
70921;BME280;58572;48.110;19.838;2022-12-20T01:10:18;99523.72;;;-1.13;78.26
70921;BME280;58572;48.110;19.838;2022-12-20T01:12:45;99521.88;;;-1.12;78.96
70921;BME280;58572;48.110;19.838;2022-12-20T01:15:12;99483.56;;;-1.36;77.84
70921;BME280;58572;48.110;19.838;2022-12-20T01:17:41;99513.88;;;-1.20;78.19
70921;BME280;58572;48.110;19.838;2022-12-20T01:20:08;99507.53;;;-0.95;77.06
70921;BME280;58572;48.110;19.838;2022-12-20T01:22:35;99497.56;;;-1.25;78.98
70921;BME280;58572;48.110;19.838;2022-12-20T01:25:02;99500.53;;;-0.96;77.85
70921;BME280;58572;48.110;19.838;2022-12-20T01:27:29;99498.88;;;-1.30;78.10
70921;BME280;58572;48.110;19.838;2022-12-20T01:29:56;99496.91;;;-1.36;79.78
70921;BME280;58572;48.110;19.838;2022-12-20T01:32:23;99494.91;;;-1.50;80.12
70921;BME280;58572;48.110;19.838;2022-12-20T01:34:52;99481.88;;;-1.37;78.71
70921;BME280;58572;48.110;19.838;2022-12-20T01:37:19;99490.22;;;-1.32;79.21
70921;BME280;58572;48.110;19.838;2022-12-20T01:39:46;99484.53;;;-1.12;78.83
70921;BME280;58572;48.110;19.838;2022-12-20T01:42:14;99457.19;;;-1.22;78.86
70921;BME280;58572;48.110;19.838;2022-12-20T01:44:59;99477.41;;;-1.52;79.38
70921;BME280;58572;48.110;19.838;2022-12-20T01:47:29;99476.91;;;-1.56;80.03
70921;BME280;58572;48.110;19.838;2022-12-20T01:50:01;99474.06;;;-1.38;79.81
70921;BME280;58572;48.110;19.838;2022-12-20T01:52:32;99458.38;;;-1.41;80.22
70921;BME280;58572;48.110;19.838;2022-12-20T01:55:06;99457.03;;;-1.21;79.55
70921;BME280;58572;48.110;19.838;2022-12-20T01:57:38;99449.06;;;-1.37;79.96
70921;BME280;58572;48.110;19.838;2022-12-20T02:00:08;99456.56;;;-1.49;79.21
70921;BME280;58572;48.110;19.838;2022-12-20T02:02:36;99387.38;;;-1.42;77.33
70921;BME280;58572;48.110;19.838;2022-12-20T02:05:05;99458.38;;;-1.41;77.45
70921;BME280;58572;48.110;19.838;2022-12-20T02:07:34;99447.69;;;-1.17;78.46
70921;BME280;58572;48.110;19.838;2022-12-20T02:10:03;99443.19;;;-1.24;78.95
70921;BME280;58572;48.110;19.838;2022-12-20T02:12:37;99448.81;;;-0.95;77.75
70921;BME280;58572;48.110;19.838;2022-12-20T02:15:19;99463.88;;;-1.18;78.01
70921;BME280;58572;48.110;19.838;2022-12-20T02:17:54;99402.41;;;-1.74;78.85
70921;BME280;58572;48.110;19.838;2022-12-20T02:20:49;99467.72;;;-1.62;80.45
70921;BME280;58572;48.110;19.838;2022-12-20T02:29:18;99474.16;;;-0.83;77.38
70921;BME280;58572;48.110;19.838;2022-12-20T02:31:53;99469.53;;;-1.13;78.49
70921;BME280;58572;48.110;19.838;2022-12-20T02:34:21;99464.53;;;-1.16;79.06
70921;BME280;58572;48.110;19.838;2022-12-20T02:36:50;99472.38;;;-1.23;78.98
70921;BME280;58572;48.110;19.838;2022-12-20T02:39:18;99468.19;;;-1.09;78.51
70921;BME280;58572;48.110;19.838;2022-12-20T02:41:48;99387.25;;;-1.65;77.83
70921;BME280;58572;48.110;19.838;2022-12-20T02:44:18;99471.22;;;-1.45;79.95
70921;BME280;58572;48.110;19.838;2022-12-20T02:47:08;99407.91;;;-1.67;78.70
70921;BME280;58572;48.110;19.838;2022-12-20T02:49:39;99390.59;;;-1.87;79.35
70921;BME280;58572;48.110;19.838;2022-12-20T02:52:09;99450.50;;;-1.02;77.62
70921;BME280;58572;48.110;19.838;2022-12-20T02:54:38;99447.13;;;-0.88;76.00
70921;BME280;58572;48.110;19.838;2022-12-20T02:57:10;99440.72;;;-0.71;77.43
70921;BME280;58572;48.110;19.838;2022-12-20T02:59:43;99422.72;;;-1.40;79.43
70921;BME280;58572;48.110;19.838;2022-12-20T03:02:13;99420.81;;;-1.15;78.27
70921;BME280;58572;48.110;19.838;2022-12-20T03:04:40;99431.00;;;-1.19;79.28
70921;BME280;58572;48.110;19.838;2022-12-20T03:07:09;99429.84;;;-1.24;80.14
70921;BME280;58572;48.110;19.838;2022-12-20T03:09:38;99414.97;;;-0.94;78.34
70921;BME280;58572;48.110;19.838;2022-12-20T03:12:07;99415.81;;;-1.02;78.91
70921;BME280;58572;48.110;19.838;2022-12-20T03:14:34;99413.84;;;-1.16;79.80
70921;BME280;58572;48.110;19.838;2022-12-20T03:17:01;99406.78;;;-0.93;80.02
70921;BME280;58572;48.110;19.838;2022-12-20T03:19:29;99407.25;;;-0.89;77.67
70921;BME280;58572;48.110;19.838;2022-12-20T03:21:56;99398.13;;;-1.11;80.07
70921;BME280;58572;48.110;19.838;2022-12-20T03:24:25;99397.47;;;-1.13;78.39
70921;BME280;58572;48.110;19.838;2022-12-20T03:26:51;99403.41;;;-0.87;78.22
70921;BME280;58572;48.110;19.838;2022-12-20T03:29:18;99406.75;;;-0.85;77.74
70921;BME280;58572;48.110;19.838;2022-12-20T03:31:45;99392.63;;;-0.62;77.16
70921;BME280;58572;48.110;19.838;2022-12-20T03:34:12;99406.41;;;-0.82;76.08
70921;BME280;58572;48.110;19.838;2022-12-20T03:36:41;99409.88;;;-1.37;78.98
70921;BME280;58572;48.110;19.838;2022-12-20T03:39:08;99406.88;;;-0.78;78.19
70921;BME280;58572;48.110;19.838;2022-12-20T03:41:35;99416.81;;;-1.11;78.52
70921;BME280;58572;48.110;19.838;2022-12-20T03:44:03;99295.50;;;-2.19;79.85
70921;BME280;58572;48.110;19.838;2022-12-20T03:46:29;99413.22;;;-1.43;79.88
70921;BME280;58572;48.110;19.838;2022-12-20T03:48:56;99404.56;;;-1.53;80.11
70921;BME280;58572;48.110;19.838;2022-12-20T03:51:24;99316.31;;;-1.82;79.51
70921;BME280;58572;48.110;19.838;2022-12-20T03:53:52;99405.34;;;-1.28;80.24
70921;BME280;58572;48.110;19.838;2022-12-20T03:56:19;99402.22;;;-1.40;79.34
70921;BME280;58572;48.110;19.838;2022-12-20T03:58:46;99390.50;;;-1.22;80.89
70921;BME280;58572;48.110;19.838;2022-12-20T04:01:17;99393.53;;;-1.34;79.84
70921;BME280;58572;48.110;19.838;2022-12-20T04:03:45;99390.19;;;-1.27;79.72
70921;BME280;58572;48.110;19.838;2022-12-20T04:06:12;99384.19;;;-1.30;78.93
70921;BME280;58572;48.110;19.838;2022-12-20T04:08:38;99382.19;;;-1.27;79.12
70921;BME280;58572;48.110;19.838;2022-12-20T04:11:07;99376.03;;;-1.36;78.25
70921;BME280;58572;48.110;19.838;2022-12-20T04:13:47;99373.34;;;-1.28;79.86
70921;BME280;58572;48.110;19.838;2022-12-20T04:16:16;99372.13;;;-1.09;78.50
70921;BME280;58572;48.110;19.838;2022-12-20T04:18:43;99340.13;;;-1.17;78.09
70921;BME280;58572;48.110;19.838;2022-12-20T04:21:11;99296.94;;;-1.68;78.80
70921;BME280;58572;48.110;19.838;2022-12-20T04:23:40;99376.16;;;-0.74;77.50
70921;BME280;58572;48.110;19.838;2022-12-20T04:26:09;99292.69;;;-1.38;77.76
70921;BME280;58572;48.110;19.838;2022-12-20T04:28:37;99355.59;;;-0.97;77.17
70921;BME280;58572;48.110;19.838;2022-12-20T04:31:05;99388.94;;;-0.30;76.52
70921;BME280;58572;48.110;19.838;2022-12-20T04:33:32;99384.28;;;-0.59;77.24
70921;BME280;58572;48.110;19.838;2022-12-20T04:35:59;99376.72;;;-0.87;79.23
70921;BME280;58572;48.110;19.838;2022-12-20T04:38:25;99370.81;;;-0.43;76.93
70921;BME280;58572;48.110;19.838;2022-12-20T04:40:53;99368.97;;;-0.43;75.90
70921;BME280;58572;48.110;19.838;2022-12-20T04:43:23;99303.56;;;-1.09;76.81
70921;BME280;58572;48.110;19.838;2022-12-20T04:45:52;99328.69;;;-0.87;76.92
70921;BME280;58572;48.110;19.838;2022-12-20T04:48:21;99369.19;;;-0.52;76.21
70921;BME280;58572;48.110;19.838;2022-12-20T04:50:49;99381.19;;;-0.48;76.06
70921;BME280;58572;48.110;19.838;2022-12-20T04:53:16;99302.25;;;-1.13;76.02
70921;BME280;58572;48.110;19.838;2022-12-20T04:56:00;99384.97;;;-0.66;77.39
70921;BME280;58572;48.110;19.838;2022-12-20T04:58:29;99376.25;;;-0.59;76.88
70921;BME280;58572;48.110;19.838;2022-12-20T05:00:56;99380.84;;;0.09;75.39
70921;BME280;58572;48.110;19.838;2022-12-20T05:03:24;99338.66;;;-0.27;75.75
70921;BME280;58572;48.110;19.838;2022-12-20T05:05:52;99369.84;;;0.04;74.58
70921;BME280;58572;48.110;19.838;2022-12-20T05:08:19;99308.72;;;-0.22;75.08
70921;BME280;58572;48.110;19.838;2022-12-20T05:10:46;99356.91;;;-0.61;77.14
70921;BME280;58572;48.110;19.838;2022-12-20T05:13:13;99354.50;;;-0.48;77.17
70921;BME280;58572;48.110;19.838;2022-12-20T05:15:42;99353.75;;;-0.65;77.93
70921;BME280;58572;48.110;19.838;2022-12-20T05:18:09;99336.16;;;-1.30;78.39
70921;BME280;58572;48.110;19.838;2022-12-20T05:20:36;99343.53;;;-1.40;76.85
70921;BME280;58572;48.110;19.838;2022-12-20T05:23:03;99357.13;;;-1.18;77.50
70921;BME280;58572;48.110;19.838;2022-12-20T05:25:49;99327.75;;;-1.10;77.24
70921;BME280;58572;48.110;19.838;2022-12-20T05:28:34;99357.03;;;-1.33;78.10
70921;BME280;58572;48.110;19.838;2022-12-20T05:31:03;99227.41;;;-2.06;77.60
70921;BME280;58572;48.110;19.838;2022-12-20T05:33:30;99363.06;;;-1.55;79.45
70921;BME280;58572;48.110;19.838;2022-12-20T05:35:57;99358.41;;;-1.53;78.63
70921;BME280;58572;48.110;19.838;2022-12-20T05:38:24;99296.13;;;-1.77;78.87
70921;BME280;58572;48.110;19.838;2022-12-20T05:40:51;99362.63;;;-0.73;74.86
70921;BME280;58572;48.110;19.838;2022-12-20T05:43:18;99360.25;;;-1.07;78.45
70921;BME280;58572;48.110;19.838;2022-12-20T05:45:46;99352.94;;;-0.66;76.43
70921;BME280;58572;48.110;19.838;2022-12-20T05:48:15;99347.66;;;-0.82;77.55
70921;BME280;58572;48.110;19.838;2022-12-20T05:50:42;99355.53;;;-1.36;78.14
70921;BME280;58572;48.110;19.838;2022-12-20T05:53:10;99354.13;;;-1.15;78.91
70921;BME280;58572;48.110;19.838;2022-12-20T05:55:38;99345.63;;;-1.74;79.67
70921;BME280;58572;48.110;19.838;2022-12-20T05:58:07;99334.75;;;-1.56;79.50
70921;BME280;58572;48.110;19.838;2022-12-20T06:00:37;99239.53;;;-1.87;77.34
70921;BME280;58572;48.110;19.838;2022-12-20T06:03:06;99256.88;;;-1.44;77.00
70921;BME280;58572;48.110;19.838;2022-12-20T06:05:35;99340.28;;;-1.19;76.96
70921;BME280;58572;48.110;19.838;2022-12-20T06:08:03;99292.94;;;-1.64;79.41
70921;BME280;58572;48.110;19.838;2022-12-20T06:10:30;99323.59;;;-1.68;79.46
70921;BME280;58572;48.110;19.838;2022-12-20T06:12:57;99181.81;;;-2.27;78.90
70921;BME280;58572;48.110;19.838;2022-12-20T06:15:24;99323.41;;;-1.50;79.30
70921;BME280;58572;48.110;19.838;2022-12-20T06:17:51;99316.88;;;-0.92;77.90
70921;BME280;58572;48.110;19.838;2022-12-20T06:20:18;99321.94;;;-1.61;78.35
70921;BME280;58572;48.110;19.838;2022-12-20T06:22:46;99312.31;;;-1.23;78.26
70921;BME280;58572;48.110;19.838;2022-12-20T06:25:13;99321.94;;;-1.14;78.82
70921;BME280;58572;48.110;19.838;2022-12-20T06:27:40;99327.13;;;-1.20;78.60
70921;BME280;58572;48.110;19.838;2022-12-20T06:30:08;99320.19;;;-1.38;77.75
70921;BME280;58572;48.110;19.838;2022-12-20T06:32:36;99214.81;;;-2.77;80.70
70921;BME280;58572;48.110;19.838;2022-12-20T06:35:04;99318.28;;;-1.68;80.44
70921;BME280;58572;48.110;19.838;2022-12-20T06:37:31;99319.97;;;-1.75;79.34
70921;BME280;58572;48.110;19.838;2022-12-20T06:40:00;99315.72;;;-1.45;80.00
70921;BME280;58572;48.110;19.838;2022-12-20T06:42:27;99331.47;;;-1.91;80.41
70921;BME280;58572;48.110;19.838;2022-12-20T06:44:54;99325.63;;;-2.11;81.86
70921;BME280;58572;48.110;19.838;2022-12-20T06:47:21;99321.31;;;-1.96;80.06
70921;BME280;58572;48.110;19.838;2022-12-20T06:49:48;99319.16;;;-2.00;79.67
70921;BME280;58572;48.110;19.838;2022-12-20T06:52:15;99328.63;;;-1.81;79.04
70921;BME280;58572;48.110;19.838;2022-12-20T06:54:42;99316.47;;;-2.08;80.03
70921;BME280;58572;48.110;19.838;2022-12-20T06:57:10;99314.25;;;-1.64;79.50
70921;BME280;58572;48.110;19.838;2022-12-20T06:59:37;99172.22;;;-2.93;79.74
70921;BME280;58572;48.110;19.838;2022-12-20T07:02:04;99328.97;;;-1.84;79.94
70921;BME280;58572;48.110;19.838;2022-12-20T07:04:32;99200.97;;;-2.32;80.11
70921;BME280;58572;48.110;19.838;2022-12-20T07:06:58;99319.69;;;-1.41;79.19
70921;BME280;58572;48.110;19.838;2022-12-20T07:09:25;99324.53;;;-1.45;79.93
70921;BME280;58572;48.110;19.838;2022-12-20T07:11:52;99315.97;;;-1.24;77.59
70921;BME280;58572;48.110;19.838;2022-12-20T07:14:20;99320.06;;;-0.97;78.49
70921;BME280;58572;48.110;19.838;2022-12-20T07:16:47;99324.16;;;-0.86;78.83
70921;BME280;58572;48.110;19.838;2022-12-20T07:19:15;99321.41;;;-1.09;78.64
70921;BME280;58572;48.110;19.838;2022-12-20T07:21:42;99329.19;;;-0.91;78.99
70921;BME280;58572;48.110;19.838;2022-12-20T07:24:09;99339.22;;;-0.93;79.07
70921;BME280;58572;48.110;19.838;2022-12-20T07:26:36;99338.81;;;-0.51;76.29
70921;BME280;58572;48.110;19.838;2022-12-20T07:29:03;99346.78;;;-0.43;76.15
70921;BME280;58572;48.110;19.838;2022-12-20T07:31:32;99353.50;;;-0.78;78.53
70921;BME280;58572;48.110;19.838;2022-12-20T07:33:59;99321.06;;;-1.06;80.13
70921;BME280;58572;48.110;19.838;2022-12-20T07:36:26;99346.50;;;-0.79;79.35
70921;BME280;58572;48.110;19.838;2022-12-20T07:38:53;99324.91;;;-1.09;79.41
70921;BME280;58572;48.110;19.838;2022-12-20T07:41:19;99335.94;;;-1.12;79.27
70921;BME280;58572;48.110;19.838;2022-12-20T07:43:46;99332.75;;;-0.99;79.74
70921;BME280;58572;48.110;19.838;2022-12-20T07:46:14;99345.03;;;-0.90;76.07
70921;BME280;58572;48.110;19.838;2022-12-20T07:48:43;99327.63;;;-0.78;75.27
70921;BME280;58572;48.110;19.838;2022-12-20T07:51:13;99325.47;;;-0.82;76.40
70921;BME280;58572;48.110;19.838;2022-12-20T07:53:47;99212.69;;;-1.38;76.86
70921;BME280;58572;48.110;19.838;2022-12-20T07:56:17;99305.47;;;-0.33;77.04
70921;BME280;58572;48.110;19.838;2022-12-20T07:58:45;99221.13;;;-1.26;76.89
70921;BME280;58572;48.110;19.838;2022-12-20T08:01:12;99318.25;;;-0.74;76.89
70921;BME280;58572;48.110;19.838;2022-12-20T08:03:44;99315.53;;;-0.20;75.98
70921;BME280;58572;48.110;19.838;2022-12-20T08:06:13;99290.38;;;-0.48;76.11
70921;BME280;58572;48.110;19.838;2022-12-20T08:08:44;99318.22;;;-0.66;76.88
70921;BME280;58572;48.110;19.838;2022-12-20T08:11:13;99323.75;;;-0.21;77.02
70921;BME280;58572;48.110;19.838;2022-12-20T08:13:40;99313.75;;;0.18;75.95
70921;BME280;58572;48.110;19.838;2022-12-20T08:16:07;99198.72;;;-0.86;76.88
70921;BME280;58572;48.110;19.838;2022-12-20T08:18:34;99301.38;;;-0.43;77.22
70921;BME280;58572;48.110;19.838;2022-12-20T08:21:03;99261.00;;;-0.11;75.40
70921;BME280;58572;48.110;19.838;2022-12-20T08:23:30;99284.78;;;-0.16;77.23
70921;BME280;58572;48.110;19.838;2022-12-20T08:25:59;99293.53;;;0.16;76.81
70921;BME280;58572;48.110;19.838;2022-12-20T08:28:27;99289.94;;;0.09;76.94
70921;BME280;58572;48.110;19.838;2022-12-20T08:30:59;99298.19;;;-0.01;76.12
70921;BME280;58572;48.110;19.838;2022-12-20T08:33:26;99127.69;;;-0.73;76.35
70921;BME280;58572;48.110;19.838;2022-12-20T08:35:56;99287.28;;;-0.14;77.37
70921;BME280;58572;48.110;19.838;2022-12-20T08:38:26;99287.28;;;0.38;76.15
70921;BME280;58572;48.110;19.838;2022-12-20T08:40:54;99278.16;;;0.32;76.52
70921;BME280;58572;48.110;19.838;2022-12-20T08:43:21;99277.88;;;0.13;76.63
70921;BME280;58572;48.110;19.838;2022-12-20T08:45:52;99268.28;;;0.62;75.86
70921;BME280;58572;48.110;19.838;2022-12-20T08:48:19;99266.41;;;1.07;74.69
70921;BME280;58572;48.110;19.838;2022-12-20T08:50:47;99267.06;;;0.80;72.14
70921;BME280;58572;48.110;19.838;2022-12-20T08:53:14;99274.56;;;0.40;76.34
70921;BME280;58572;48.110;19.838;2022-12-20T08:55:42;99263.38;;;0.66;76.73
70921;BME280;58572;48.110;19.838;2022-12-20T08:58:09;99262.25;;;0.90;75.20
70921;BME280;58572;48.110;19.838;2022-12-20T09:00:36;99243.78;;;1.10;72.65
70921;BME280;58572;48.110;19.838;2022-12-20T09:03:03;99256.63;;;0.85;73.10
70921;BME280;58572;48.110;19.838;2022-12-20T09:05:31;99248.81;;;1.19;74.15
70921;BME280;58572;48.110;19.838;2022-12-20T09:07:58;99244.16;;;1.07;74.24
70921;BME280;58572;48.110;19.838;2022-12-20T09:10:25;99247.84;;;0.91;74.48
70921;BME280;58572;48.110;19.838;2022-12-20T09:12:53;99238.59;;;1.08;74.10
70921;BME280;58572;48.110;19.838;2022-12-20T09:15:20;99215.22;;;1.02;74.60
70921;BME280;58572;48.110;19.838;2022-12-20T09:17:47;99243.53;;;1.26;74.98
70921;BME280;58572;48.110;19.838;2022-12-20T09:20:14;99245.88;;;1.14;72.69
70921;BME280;58572;48.110;19.838;2022-12-20T09:22:41;99083.50;;;-0.02;73.29
70921;BME280;58572;48.110;19.838;2022-12-20T09:25:08;99114.56;;;0.86;70.61
70921;BME280;58572;48.110;19.838;2022-12-20T09:27:35;99247.75;;;0.99;73.76
70921;BME280;58572;48.110;19.838;2022-12-20T09:30:05;99239.63;;;1.28;72.89
70921;BME280;58572;48.110;19.838;2022-12-20T09:32:32;99230.66;;;1.57;73.69
70921;BME280;58572;48.110;19.838;2022-12-20T09:34:59;99232.50;;;1.36;72.84
70921;BME280;58572;48.110;19.838;2022-12-20T09:37:28;99229.69;;;1.44;73.51
70921;BME280;58572;48.110;19.838;2022-12-20T09:39:55;99223.25;;;1.87;71.02
70921;BME280;58572;48.110;19.838;2022-12-20T09:42:25;99218.03;;;1.79;71.53
70921;BME280;58572;48.110;19.838;2022-12-20T09:44:59;99204.97;;;1.98;71.70
70921;BME280;58572;48.110;19.838;2022-12-20T09:47:29;99211.59;;;2.02;68.97
70921;BME280;58572;48.110;19.838;2022-12-20T09:50:00;99181.69;;;1.70;72.75
70921;BME280;58572;48.110;19.838;2022-12-20T09:52:46;99206.97;;;1.89;72.26
70921;BME280;58572;48.110;19.838;2022-12-20T09:55:23;99199.66;;;1.76;71.06
70921;BME280;58572;48.110;19.838;2022-12-20T09:58:05;99196.50;;;1.66;68.78
70921;BME280;58572;48.110;19.838;2022-12-20T10:00:40;99197.25;;;1.60;66.72
70921;BME280;58572;48.110;19.838;2022-12-20T10:03:15;99122.31;;;1.45;69.55
70921;BME280;58572;48.110;19.838;2022-12-20T10:05:50;99192.03;;;1.52;71.96
70921;BME280;58572;48.110;19.838;2022-12-20T10:08:25;99041.22;;;0.81;70.55
70921;BME280;58572;48.110;19.838;2022-12-20T10:11:07;99188.56;;;1.79;71.41
70921;BME280;58572;48.110;19.838;2022-12-20T10:13:42;99187.78;;;2.13;69.34
70921;BME280;58572;48.110;19.838;2022-12-20T10:16:23;99194.34;;;1.55;71.06
70921;BME280;58572;48.110;19.838;2022-12-20T10:19:07;99185.28;;;2.12;67.06
70921;BME280;58572;48.110;19.838;2022-12-20T10:21:44;99156.22;;;1.87;67.54
70921;BME280;58572;48.110;19.838;2022-12-20T10:24:16;99176.16;;;1.78;70.58
70921;BME280;58572;48.110;19.838;2022-12-20T10:26:47;99176.75;;;2.02;68.86
70921;BME280;58572;48.110;19.838;2022-12-20T10:29:15;99170.25;;;1.34;71.39
70921;BME280;58572;48.110;19.838;2022-12-20T10:31:42;99157.78;;;1.75;71.09
70921;BME280;58572;48.110;19.838;2022-12-20T10:34:11;99158.03;;;2.08;70.24
70921;BME280;58572;48.110;19.838;2022-12-20T10:36:39;99162.13;;;1.48;72.66
70921;BME280;58572;48.110;19.838;2022-12-20T10:39:08;99163.84;;;1.84;69.01
70921;BME280;58572;48.110;19.838;2022-12-20T10:41:47;99131.56;;;1.71;72.27
70921;BME280;58572;48.110;19.838;2022-12-20T10:44:19;99146.97;;;1.34;72.93
70921;BME280;58572;48.110;19.838;2022-12-20T10:46:51;99018.91;;;0.95;71.75
70921;BME280;58572;48.110;19.838;2022-12-20T10:49:27;99140.78;;;2.24;72.39
70921;BME280;58572;48.110;19.838;2022-12-20T10:51:56;99134.38;;;1.90;72.01
70921;BME280;58572;48.110;19.838;2022-12-20T10:54:29;99122.59;;;2.19;70.26
70921;BME280;58572;48.110;19.838;2022-12-20T10:56:58;99130.69;;;1.91;73.41
70921;BME280;58572;48.110;19.838;2022-12-20T10:59:31;99125.34;;;1.98;71.29
70921;BME280;58572;48.110;19.838;2022-12-20T11:01:59;99116.41;;;2.19;68.52
70921;BME280;58572;48.110;19.838;2022-12-20T11:04:30;99109.88;;;2.35;71.15
70921;BME280;58572;48.110;19.838;2022-12-20T11:06:58;99109.53;;;2.58;71.46
70921;BME280;58572;48.110;19.838;2022-12-20T11:09:29;99090.09;;;2.42;66.43
70921;BME280;58572;48.110;19.838;2022-12-20T11:12:03;99101.25;;;2.46;64.05
70921;BME280;58572;48.110;19.838;2022-12-20T11:14:32;99102.06;;;2.40;65.17
70921;BME280;58572;48.110;19.838;2022-12-20T11:17:03;99100.09;;;2.75;63.77
70921;BME280;58572;48.110;19.838;2022-12-20T11:22:50;99082.25;;;2.47;64.36
70921;BME280;58572;48.110;19.838;2022-12-20T11:25:37;99080.59;;;2.46;64.09
70921;BME280;58572;48.110;19.838;2022-12-20T11:28:33;99066.44;;;2.92;69.71
70921;BME280;58572;48.110;19.838;2022-12-20T11:31:11;99041.03;;;2.88;67.15
70921;BME280;58572;48.110;19.838;2022-12-20T11:33:58;99050.50;;;2.58;70.88
70921;BME280;58572;48.110;19.838;2022-12-20T11:36:51;99047.44;;;2.80;65.07
70921;BME280;58572;48.110;19.838;2022-12-20T11:39:30;99047.22;;;2.82;61.83
70921;BME280;58572;48.110;19.838;2022-12-20T11:42:03;99049.31;;;3.06;63.07
70921;BME280;58572;48.110;19.838;2022-12-20T11:44:45;99041.75;;;2.29;63.87
70921;BME280;58572;48.110;19.838;2022-12-20T11:47:36;99038.69;;;2.45;62.54
70921;BME280;58572;48.110;19.838;2022-12-20T11:50:19;99027.41;;;3.36;63.36
70921;BME280;58572;48.110;19.838;2022-12-20T11:52:54;99038.31;;;2.68;61.01
70921;BME280;58572;48.110;19.838;2022-12-20T11:55:27;98965.38;;;2.18;62.91
70921;BME280;58572;48.110;19.838;2022-12-20T11:58:00;99029.22;;;2.49;61.92
70921;BME280;58572;48.110;19.838;2022-12-20T12:00:30;99024.88;;;2.48;65.64
70921;BME280;58572;48.110;19.838;2022-12-20T12:03:03;99024.91;;;2.95;62.75
70921;BME280;58572;48.110;19.838;2022-12-20T12:05:40;99028.59;;;2.61;61.73
70921;BME280;58572;48.110;19.838;2022-12-20T12:08:14;99030.88;;;2.64;62.89
70921;BME280;58572;48.110;19.838;2022-12-20T12:10:51;98981.03;;;2.15;62.09
70921;BME280;58572;48.110;19.838;2022-12-20T12:13:24;99027.81;;;2.80;66.68
70921;BME280;58572;48.110;19.838;2022-12-20T12:15:56;99015.00;;;2.88;67.28
70921;BME280;58572;48.110;19.838;2022-12-20T12:18:28;99014.19;;;3.28;66.99
70921;BME280;58572;48.110;19.838;2022-12-20T12:21:01;98977.59;;;2.94;63.56
70921;BME280;58572;48.110;19.838;2022-12-20T12:23:35;98967.84;;;2.13;67.63
70921;BME280;58572;48.110;19.838;2022-12-20T12:26:10;99010.88;;;3.32;66.28
70921;BME280;58572;48.110;19.838;2022-12-20T12:28:38;99015.00;;;3.35;64.35
70921;BME280;58572;48.110;19.838;2022-12-20T12:31:06;99028.63;;;3.00;66.06
70921;BME280;58572;48.110;19.838;2022-12-20T12:33:40;99020.59;;;3.27;67.57
70921;BME280;58572;48.110;19.838;2022-12-20T12:36:22;99010.88;;;2.73;62.97
70921;BME280;58572;48.110;19.838;2022-12-20T12:39:09;98977.41;;;2.95;62.78
70921;BME280;58572;48.110;19.838;2022-12-20T12:42:06;98998.47;;;2.92;66.00
70921;BME280;58572;48.110;19.838;2022-12-20T12:44:41;98990.16;;;3.46;65.69
70921;BME280;58572;48.110;19.838;2022-12-20T12:47:16;98971.22;;;3.14;66.23
70921;BME280;58572;48.110;19.838;2022-12-20T12:49:49;98964.19;;;3.13;67.04
70921;BME280;58572;48.110;19.838;2022-12-20T12:52:28;98969.13;;;3.03;65.49
70921;BME280;58572;48.110;19.838;2022-12-20T12:55:02;98959.63;;;2.87;65.55
70921;BME280;58572;48.110;19.838;2022-12-20T12:57:53;98962.31;;;3.01;66.87
70921;BME280;58572;48.110;19.838;2022-12-20T13:00:51;98958.78;;;3.07;64.34
70921;BME280;58572;48.110;19.838;2022-12-20T13:03:37;98954.66;;;3.04;65.22
70921;BME280;58572;48.110;19.838;2022-12-20T13:09:19;98962.94;;;3.03;65.80
70921;BME280;58572;48.110;19.838;2022-12-20T13:11:47;98981.50;;;2.38;62.85
70921;BME280;58572;48.110;19.838;2022-12-20T13:20:23;98975.13;;;2.99;64.29
70921;BME280;58572;48.110;19.838;2022-12-20T13:23:13;98960.44;;;3.28;61.91
70921;BME280;58572;48.110;19.838;2022-12-20T13:25:43;98966.63;;;2.36;61.45
70921;BME280;58572;48.110;19.838;2022-12-20T13:31:33;98966.03;;;2.80;61.17